createdAt,value
2023-03-18T00:00:10.378Z,100091.00
2023-03-18T00:02:38.838Z,100092.00
2023-03-18T00:05:11.103Z,100095.00
2023-03-18T00:07:41.505Z,100089.00
2023-03-18T00:10:12.068Z,100083.00
2023-03-18T00:12:40.427Z,100076.00
2023-03-18T00:15:11.490Z,100095.00
2023-03-18T00:17:40.324Z,100087.00
2023-03-18T00:20:09.677Z,100082.00
2023-03-18T00:22:41.425Z,100067.00
2023-03-18T00:25:11.843Z,100088.00
2023-03-18T00:27:40.346Z,100085.00
2023-03-18T00:30:09.825Z,100085.00
2023-03-18T00:32:38.799Z,100073.00
2023-03-18T00:35:07.529Z,100091.00
2023-03-18T00:37:36.638Z,100070.00
2023-03-18T00:40:10.247Z,100091.00
2023-03-18T00:42:42.720Z,100078.00
2023-03-18T00:45:11.968Z,100089.00
2023-03-18T00:47:39.796Z,100089.00
2023-03-18T00:50:09.439Z,100110.00
2023-03-18T00:52:37.576Z,100103.00
2023-03-18T00:55:08.359Z,100074.00
2023-03-18T00:57:36.220Z,100112.00
2023-03-18T01:00:06.801Z,100109.00
2023-03-18T01:02:35.879Z,100058.00
2023-03-18T01:05:03.973Z,100115.00
2023-03-18T01:07:31.888Z,100120.00
2023-03-18T01:09:59.959Z,100125.00
2023-03-18T01:12:29.280Z,100110.00
2023-03-18T01:14:58.172Z,100111.00
2023-03-18T01:17:26.215Z,100116.00
2023-03-18T01:19:54.309Z,100109.00
2023-03-18T01:22:22.222Z,100111.00
2023-03-18T01:24:50.047Z,100100.00
2023-03-18T01:27:18.545Z,100116.00
2023-03-18T01:29:47.961Z,100104.00
2023-03-18T01:32:16.413Z,100073.00
2023-03-18T01:34:44.315Z,100103.00
2023-03-18T01:37:12.821Z,100108.00
2023-03-18T01:39:41.202Z,100116.00
2023-03-18T01:42:09.124Z,100095.00
2023-03-18T01:44:37.539Z,100123.00
2023-03-18T01:47:07.987Z,100111.00
2023-03-18T01:49:37.973Z,100092.00
2023-03-18T01:52:09.716Z,100106.00
2023-03-18T01:54:41.063Z,100118.00
2023-03-18T01:57:09.000Z,100112.00
2023-03-18T01:59:40.512Z,100105.00
2023-03-18T02:02:12.093Z,100080.00
2023-03-18T02:04:42.318Z,100115.00
2023-03-18T02:07:16.066Z,100075.00
2023-03-18T02:09:44.692Z,100117.00
2023-03-18T02:12:14.595Z,100130.00
2023-03-18T02:14:42.627Z,100096.00
2023-03-18T02:17:15.490Z,100108.00
2023-03-18T02:20:10.461Z,100117.00
2023-03-18T02:22:41.537Z,100114.00
2023-03-18T02:25:20.558Z,100099.00
2023-03-18T02:27:54.820Z,100111.00
2023-03-18T02:30:27.452Z,100113.00
2023-03-18T02:32:57.921Z,100121.00
2023-03-18T02:35:27.914Z,100128.00
2023-03-18T02:37:55.945Z,100127.00
2023-03-18T02:40:26.678Z,100124.00
2023-03-18T02:42:57.294Z,100104.00
2023-03-18T02:45:38.438Z,100102.00
2023-03-18T02:48:08.643Z,100147.00
2023-03-18T02:50:36.582Z,100129.00
2023-03-18T02:53:06.509Z,100150.00
2023-03-18T02:55:34.477Z,100113.00
2023-03-18T02:58:03.759Z,100144.00
2023-03-18T03:00:31.807Z,100141.00
2023-03-18T03:02:59.971Z,100137.00
2023-03-18T03:05:27.882Z,100131.00
2023-03-18T03:07:56.013Z,100131.00
2023-03-18T03:10:23.970Z,100121.00
2023-03-18T03:12:52.549Z,100157.00
2023-03-18T03:15:21.826Z,100163.00
2023-03-18T03:17:49.727Z,100160.00
2023-03-18T03:20:18.222Z,100155.00
2023-03-18T03:22:46.444Z,100159.00
2023-03-18T03:25:15.461Z,100159.00
2023-03-18T03:27:43.708Z,100145.00
2023-03-18T03:30:13.610Z,100181.00
2023-03-18T03:32:43.084Z,100179.00
2023-03-18T03:35:14.083Z,100172.00
2023-03-18T03:37:43.839Z,100189.00
2023-03-18T03:40:13.245Z,100182.00
2023-03-18T03:42:41.090Z,100175.00
2023-03-18T03:45:10.035Z,100170.00
2023-03-18T03:47:37.802Z,100166.00
2023-03-18T03:50:08.152Z,100166.00
2023-03-18T03:52:36.711Z,100172.00
2023-03-18T03:55:05.817Z,100169.00
2023-03-18T03:57:33.658Z,100184.00
2023-03-18T04:00:01.655Z,100165.00
2023-03-18T04:02:29.449Z,100182.00
2023-03-18T04:04:57.515Z,100178.00
2023-03-18T04:07:27.113Z,100176.00
2023-03-18T04:09:55.948Z,100173.00
2023-03-18T04:12:23.708Z,100195.00
2023-03-18T04:14:51.934Z,100161.00
2023-03-18T04:17:19.736Z,100192.00
2023-03-18T04:19:47.534Z,100186.00
2023-03-18T04:22:15.909Z,100179.00
2023-03-18T04:24:45.084Z,100175.00
2023-03-18T04:27:14.464Z,100181.00
2023-03-18T04:29:42.243Z,100166.00
2023-03-18T04:32:10.047Z,100183.00
2023-03-18T04:34:38.516Z,100167.00
2023-03-18T04:37:06.347Z,100188.00
2023-03-18T04:39:34.226Z,100173.00
2023-03-18T04:42:03.340Z,100184.00
2023-03-18T04:44:31.057Z,100186.00
2023-03-18T04:46:59.285Z,100193.00
2023-03-18T04:49:27.057Z,100192.00
2023-03-18T04:51:54.884Z,100193.00
2023-03-18T04:54:22.691Z,100200.00
2023-03-18T04:56:50.689Z,100194.00
2023-03-18T04:59:20.070Z,100191.00
2023-03-18T05:01:47.802Z,100199.00
2023-03-18T05:04:15.629Z,100188.00
2023-03-18T05:06:43.574Z,100162.00
2023-03-18T05:09:13.202Z,100189.00
2023-03-18T05:11:41.008Z,100179.00
2023-03-18T05:14:08.797Z,100180.00
2023-03-18T05:16:38.227Z,100184.00
2023-03-18T05:19:06.118Z,100183.00
2023-03-18T05:21:33.861Z,100179.00
2023-03-18T05:24:01.801Z,100143.00
2023-03-18T05:26:29.731Z,100176.00
2023-03-18T05:28:58.902Z,100173.00
2023-03-18T05:31:26.814Z,100176.00
2023-03-18T05:33:56.113Z,100197.00
2023-03-18T05:36:24.385Z,100182.00
2023-03-18T05:38:52.272Z,100192.00
2023-03-18T05:41:20.340Z,100193.00
2023-03-18T05:43:48.658Z,100154.00
2023-03-18T05:46:16.602Z,100198.00
2023-03-18T05:48:44.568Z,100201.00
2023-03-18T05:51:13.944Z,100181.00
2023-03-18T05:53:42.204Z,100185.00
2023-03-18T05:56:10.599Z,100189.00
2023-03-18T05:58:38.414Z,100205.00
2023-03-18T06:01:07.332Z,100199.00
2023-03-18T06:03:35.743Z,100201.00
2023-03-18T06:06:03.857Z,100204.00
2023-03-18T06:08:33.441Z,100173.00
2023-03-18T06:11:01.466Z,100215.00
2023-03-18T06:13:30.144Z,100187.00
2023-03-18T06:15:58.449Z,100203.00
2023-03-18T06:18:26.438Z,100201.00
2023-03-18T06:20:54.463Z,100217.00
2023-03-18T06:23:22.564Z,100205.00
2023-03-18T06:25:52.424Z,100210.00
2023-03-18T06:28:20.424Z,100214.00
2023-03-18T06:30:48.410Z,100190.00
2023-03-18T06:33:16.564Z,100212.00
2023-03-18T06:35:44.754Z,100196.00
2023-03-18T06:38:14.528Z,100205.00
2023-03-18T06:40:42.307Z,100221.00
2023-03-18T06:43:12.473Z,100230.00
2023-03-18T06:45:41.115Z,100226.00
2023-03-18T06:48:10.502Z,100236.00
2023-03-18T06:50:39.815Z,100206.00
2023-03-18T06:53:08.483Z,100235.00
2023-03-18T06:55:37.102Z,100239.00
2023-03-18T06:58:06.278Z,100254.00
2023-03-18T07:00:36.086Z,100254.00
2023-03-18T07:03:04.946Z,100245.00
2023-03-18T07:05:33.434Z,100255.00
2023-03-18T07:08:01.643Z,100269.00
2023-03-18T07:10:31.097Z,100266.00
2023-03-18T07:12:59.977Z,100250.00
2023-03-18T07:15:28.809Z,100236.00
2023-03-18T07:18:00.495Z,100254.00
2023-03-18T07:20:28.833Z,100265.00
2023-03-18T07:22:56.924Z,100242.00
2023-03-18T07:25:27.337Z,100283.00
2023-03-18T07:27:58.206Z,100287.00
2023-03-18T07:30:27.167Z,100294.00
2023-03-18T07:32:55.474Z,100278.00
2023-03-18T07:35:25.612Z,100293.00
2023-03-18T07:37:53.898Z,100283.00
2023-03-18T07:40:21.814Z,100284.00
2023-03-18T07:42:51.536Z,100288.00
2023-03-18T07:45:19.888Z,100298.00
2023-03-18T07:47:48.947Z,100283.00
2023-03-18T07:50:17.242Z,100308.00
2023-03-18T07:52:46.645Z,100267.00
2023-03-18T07:55:14.657Z,100276.00
2023-03-18T07:57:43.010Z,100318.00
2023-03-18T08:00:12.810Z,100308.00
2023-03-18T08:02:40.739Z,100322.00
2023-03-18T08:05:09.250Z,100310.00
2023-03-18T08:07:37.897Z,100311.00
2023-03-18T08:10:09.022Z,100322.00
2023-03-18T08:12:51.495Z,100321.00
2023-03-18T08:15:20.579Z,100326.00
2023-03-18T08:17:48.396Z,100325.00
2023-03-18T08:20:16.485Z,100313.00
2023-03-18T08:22:45.951Z,100333.00
2023-03-18T08:25:15.417Z,100344.00
2023-03-18T08:27:43.685Z,100355.00
2023-03-18T08:30:13.680Z,100338.00
2023-03-18T08:32:41.995Z,100340.00
2023-03-18T08:35:11.480Z,100341.00
2023-03-18T08:37:39.554Z,100350.00
2023-03-18T08:40:09.733Z,100344.00
2023-03-18T08:42:38.880Z,100339.00
2023-03-18T08:45:08.221Z,100337.00
2023-03-18T08:47:36.015Z,100342.00
2023-03-18T08:50:04.042Z,100344.00
2023-03-18T08:52:32.319Z,100340.00
2023-03-18T08:55:00.445Z,100354.00
2023-03-18T08:57:28.244Z,100339.00
2023-03-18T08:59:57.707Z,100347.00
2023-03-18T09:02:25.764Z,100335.00
2023-03-18T09:04:55.234Z,100356.00
2023-03-18T09:07:23.337Z,100335.00
2023-03-18T09:09:51.748Z,100350.00
2023-03-18T09:12:20.037Z,100304.00
2023-03-18T09:14:48.053Z,100346.00
2023-03-18T09:17:17.375Z,100339.00
2023-03-18T09:19:45.359Z,100362.00
2023-03-18T09:22:13.147Z,100348.00
2023-03-18T09:24:41.662Z,100336.00
2023-03-18T09:27:09.592Z,100356.00
2023-03-18T09:29:37.600Z,100341.00
2023-03-18T09:32:06.074Z,100323.00
2023-03-18T09:34:36.540Z,100353.00
2023-03-18T09:37:04.803Z,100357.00
2023-03-18T09:39:32.632Z,100365.00
2023-03-18T09:42:16.471Z,100375.00
2023-03-18T09:44:45.295Z,100368.00
2023-03-18T09:47:32.802Z,100373.00
2023-03-18T09:50:14.315Z,100355.00
2023-03-18T09:52:48.024Z,100387.00
2023-03-18T09:55:24.995Z,100389.00
2023-03-18T09:57:57.737Z,100383.00
2023-03-18T10:00:29.402Z,100369.00
2023-03-18T10:03:06.254Z,100388.00
2023-03-18T10:05:41.312Z,100392.00
2023-03-18T10:08:19.125Z,100388.00
2023-03-18T10:10:48.594Z,100386.00
2023-03-18T10:13:22.289Z,100378.00
2023-03-18T10:15:54.315Z,100390.00
2023-03-18T10:18:28.519Z,100385.00
2023-03-18T10:21:09.529Z,100396.00
2023-03-18T10:23:46.933Z,100368.00
2023-03-18T10:26:18.622Z,100391.00
2023-03-18T10:29:10.459Z,100373.00
2023-03-18T10:31:53.532Z,100395.00
2023-03-18T10:34:24.038Z,100395.00
2023-03-18T10:37:03.179Z,100398.00
2023-03-18T10:39:33.657Z,100406.00
2023-03-18T10:42:21.965Z,100401.00
2023-03-18T10:44:51.450Z,100416.00
2023-03-18T10:47:26.387Z,100383.00
2023-03-18T10:50:06.096Z,100412.00
2023-03-18T10:52:41.466Z,100377.00
2023-03-18T10:55:17.835Z,100399.00
2023-03-18T10:57:48.741Z,100391.00
2023-03-18T11:00:29.877Z,100380.00
2023-03-18T11:02:58.370Z,100395.00
2023-03-18T11:05:28.713Z,100397.00
2023-03-18T11:07:59.924Z,100386.00
2023-03-18T11:10:30.897Z,100397.00
2023-03-18T11:13:02.416Z,100399.00
2023-03-18T11:15:31.269Z,100401.00
2023-03-18T11:18:02.490Z,100377.00
2023-03-18T11:20:42.952Z,100402.00
2023-03-18T11:23:20.511Z,100413.00
2023-03-18T11:25:50.043Z,100400.00
2023-03-18T11:28:23.004Z,100412.00
2023-03-18T11:30:53.178Z,100397.00
2023-03-18T11:33:25.308Z,100387.00
2023-03-18T11:35:55.842Z,100411.00
2023-03-18T11:38:28.656Z,100406.00
2023-03-18T11:41:08.817Z,100398.00
2023-03-18T11:43:38.740Z,100374.00
2023-03-18T11:46:09.308Z,100414.00
2023-03-18T11:48:39.288Z,100412.00
2023-03-18T11:51:38.405Z,100407.00
2023-03-18T11:54:24.816Z,100403.00
2023-03-18T11:56:57.306Z,100409.00
2023-03-18T11:59:42.011Z,100411.00
2023-03-18T12:02:25.297Z,100402.00
2023-03-18T12:05:22.629Z,100398.00
2023-03-18T12:08:00.826Z,100410.00
2023-03-18T12:10:36.380Z,100399.00
2023-03-18T12:13:26.123Z,100410.00
2023-03-18T12:16:03.815Z,100402.00
2023-03-18T12:18:48.686Z,100410.00
2023-03-18T12:21:33.529Z,100423.00
2023-03-18T12:24:17.918Z,100412.00
2023-03-18T12:26:57.669Z,100412.00
2023-03-18T12:30:02.369Z,100415.00
2023-03-18T12:32:34.880Z,100412.00
2023-03-18T12:35:31.172Z,100391.00
2023-03-18T12:38:21.358Z,100396.00
2023-03-18T12:40:59.895Z,100403.00
2023-03-18T12:43:49.780Z,100414.00
2023-03-18T12:46:27.387Z,100389.00
2023-03-18T12:49:02.282Z,100403.00
2023-03-18T12:51:35.525Z,100416.00
2023-03-18T12:54:11.666Z,100402.00
2023-03-18T12:56:45.954Z,100403.00
2023-03-18T12:59:21.616Z,100409.00
2023-03-18T13:01:59.528Z,100403.00
2023-03-18T13:04:33.626Z,100404.00
2023-03-18T13:07:06.294Z,100393.00
2023-03-18T13:09:40.600Z,100389.00
2023-03-18T13:12:12.602Z,100402.00
2023-03-18T13:14:53.490Z,100398.00
2023-03-18T13:17:26.565Z,100393.00
2023-03-18T13:19:54.927Z,100395.00
2023-03-18T13:22:51.668Z,100404.00
2023-03-18T13:25:25.994Z,100398.00
2023-03-18T13:28:08.122Z,100401.00
2023-03-18T13:30:51.496Z,100392.00
2023-03-18T13:33:44.739Z,100391.00
2023-03-18T13:36:29.703Z,100410.00
2023-03-18T13:39:30.764Z,100408.00
2023-03-18T13:42:14.670Z,100399.00
2023-03-18T13:44:48.132Z,100379.00
2023-03-18T13:47:22.318Z,100400.00
2023-03-18T13:50:00.017Z,100400.00
2023-03-18T13:52:35.272Z,100392.00
2023-03-18T13:55:07.306Z,100398.00
2023-03-18T13:57:49.118Z,100390.00
2023-03-18T14:00:31.652Z,100380.00
2023-03-18T14:03:17.466Z,100365.00
2023-03-18T14:05:47.047Z,100402.00
2023-03-18T14:08:45.005Z,100388.00
2023-03-18T14:11:50.647Z,100396.00
2023-03-18T14:14:56.845Z,100391.00
2023-03-18T14:17:33.820Z,100390.00
2023-03-18T14:20:21.579Z,100374.00
2023-03-18T14:22:52.680Z,100373.00
2023-03-18T14:25:38.114Z,100370.00
2023-03-18T14:28:24.923Z,100376.00
2023-03-18T14:31:14.643Z,100376.00
2023-03-18T14:33:59.495Z,100357.00
2023-03-18T14:36:49.449Z,100384.00
2023-03-18T14:39:20.140Z,100371.00
2023-03-18T14:41:53.453Z,100374.00
2023-03-18T14:44:25.608Z,100383.00
2023-03-18T14:46:59.470Z,100379.00
2023-03-18T14:49:38.289Z,100366.00
2023-03-18T14:52:17.334Z,100378.00
2023-03-18T14:54:46.164Z,100397.00
2023-03-18T14:57:14.157Z,100364.00
2023-03-18T14:59:41.989Z,100374.00
2023-03-18T15:02:22.877Z,100389.00
2023-03-18T15:04:54.409Z,100389.00
2023-03-18T15:07:30.195Z,100385.00
2023-03-18T15:09:58.950Z,100386.00
2023-03-18T15:12:28.555Z,100389.00
2023-03-18T15:14:56.953Z,100378.00
2023-03-18T15:17:27.561Z,100379.00
2023-03-18T15:20:00.117Z,100384.00
2023-03-18T15:22:32.083Z,100386.00
2023-03-18T15:25:02.342Z,100361.00
2023-03-18T15:27:32.091Z,100355.00
2023-03-18T15:30:01.482Z,100381.00
2023-03-18T15:32:31.780Z,100375.00
2023-03-18T15:35:13.927Z,100383.00
2023-03-18T15:37:44.510Z,100381.00
2023-03-18T15:40:28.981Z,100372.00
2023-03-18T15:43:00.248Z,100369.00
2023-03-18T15:45:30.883Z,100372.00
2023-03-18T15:47:59.433Z,100380.00
2023-03-18T15:50:30.302Z,100362.00
2023-03-18T15:53:17.801Z,100375.00
2023-03-18T15:55:51.038Z,100376.00
2023-03-18T15:58:25.520Z,100364.00
2023-03-18T16:00:55.595Z,100378.00
2023-03-18T16:03:25.741Z,100380.00
2023-03-18T16:05:55.170Z,100382.00
2023-03-18T16:08:24.868Z,100379.00
2023-03-18T16:10:55.914Z,100389.00
2023-03-18T16:13:27.712Z,100376.00
2023-03-18T16:15:56.050Z,100375.00
2023-03-18T16:18:24.288Z,100372.00
2023-03-18T16:20:53.864Z,100375.00
2023-03-18T16:23:21.853Z,100379.00
2023-03-18T16:25:53.364Z,100381.00
2023-03-18T16:28:23.515Z,100379.00
2023-03-18T16:30:53.381Z,100378.00
2023-03-18T16:33:21.910Z,100389.00
2023-03-18T16:35:54.805Z,100385.00
2023-03-18T16:38:22.807Z,100359.00
2023-03-18T16:40:54.707Z,100377.00
2023-03-18T16:43:24.807Z,100372.00
2023-03-18T16:45:53.142Z,100362.00
2023-03-18T16:48:23.298Z,100383.00
2023-03-18T16:50:52.460Z,100390.00
2023-03-18T16:53:23.355Z,100395.00
2023-03-18T16:55:58.504Z,100401.00
2023-03-18T16:58:29.048Z,100396.00
2023-03-18T17:00:58.101Z,100414.00
2023-03-18T17:03:26.081Z,100394.00
2023-03-18T17:05:54.594Z,100394.00
2023-03-18T17:08:23.030Z,100397.00
2023-03-18T17:10:56.719Z,100410.00
2023-03-18T17:13:27.542Z,100400.00
2023-03-18T17:15:55.721Z,100400.00
2023-03-18T17:18:25.511Z,100407.00
2023-03-18T17:20:53.808Z,100408.00
2023-03-18T17:23:23.749Z,100395.00
2023-03-18T17:25:55.396Z,100403.00
2023-03-18T17:28:29.938Z,100411.00
2023-03-18T17:30:57.736Z,100408.00
2023-03-18T17:33:29.037Z,100412.00
2023-03-18T17:35:56.917Z,100412.00
2023-03-18T17:38:25.196Z,100406.00
2023-03-18T17:40:55.534Z,100414.00
2023-03-18T17:43:31.067Z,100414.00
2023-03-18T17:46:00.667Z,100426.00
2023-03-18T17:48:30.296Z,100424.00
2023-03-18T17:51:01.504Z,100437.00
2023-03-18T17:53:33.895Z,100419.00
2023-03-18T17:56:04.752Z,100416.00
2023-03-18T17:58:34.221Z,100428.00
2023-03-18T18:01:06.686Z,100415.00
2023-03-18T18:03:36.056Z,100430.00
2023-03-18T18:06:04.589Z,100428.00
2023-03-18T18:08:32.762Z,100426.00
2023-03-18T18:11:10.870Z,100433.00
2023-03-18T18:13:38.689Z,100433.00
2023-03-18T18:16:07.016Z,100427.00
2023-03-18T18:18:36.227Z,100431.00
2023-03-18T18:21:06.548Z,100433.00
2023-03-18T18:23:36.028Z,100429.00
2023-03-18T18:26:07.396Z,100423.00
2023-03-18T18:28:37.080Z,100426.00
2023-03-18T18:31:07.535Z,100438.00
2023-03-18T18:33:36.682Z,100433.00
2023-03-18T18:36:05.250Z,100432.00
2023-03-18T18:38:33.616Z,100434.00
2023-03-18T18:41:01.870Z,100430.00
2023-03-18T18:43:31.532Z,100443.00
2023-03-18T18:45:59.738Z,100446.00
2023-03-18T18:48:30.907Z,100447.00
2023-03-18T18:50:59.330Z,100444.00
2023-03-18T18:53:29.779Z,100409.00
2023-03-18T18:56:00.602Z,100436.00
2023-03-18T18:58:30.862Z,100440.00
2023-03-18T19:01:01.411Z,100436.00
2023-03-18T19:03:31.774Z,100431.00
2023-03-18T19:06:02.030Z,100439.00
2023-03-18T19:08:31.849Z,100434.00
2023-03-18T19:11:01.346Z,100442.00
2023-03-18T19:13:31.183Z,100443.00
2023-03-18T19:16:05.438Z,100441.00
2023-03-18T19:18:36.878Z,100445.00
2023-03-18T19:21:04.947Z,100441.00
2023-03-18T19:23:34.326Z,100437.00
2023-03-18T19:26:07.393Z,100439.00
2023-03-18T19:28:58.769Z,100439.00
2023-03-18T19:31:32.167Z,100437.00
2023-03-18T19:34:00.538Z,100422.00
2023-03-18T19:36:30.340Z,100443.00
2023-03-18T19:38:59.751Z,100446.00
2023-03-18T19:41:28.374Z,100442.00
2023-03-18T19:43:59.696Z,100434.00
2023-03-18T19:46:33.568Z,100419.00
2023-03-18T19:49:01.641Z,100443.00
2023-03-18T19:51:29.376Z,100439.00
2023-03-18T19:53:57.391Z,100440.00
2023-03-18T19:56:27.282Z,100432.00
2023-03-18T19:58:57.370Z,100451.00
2023-03-18T20:01:25.953Z,100462.00
2023-03-18T20:03:58.085Z,100447.00
2023-03-18T20:06:27.221Z,100461.00
2023-03-18T20:08:54.985Z,100467.00
2023-03-18T20:11:23.227Z,100469.00
2023-03-18T20:13:51.455Z,100476.00
2023-03-18T20:16:21.689Z,100482.00
2023-03-18T20:18:49.512Z,100476.00
2023-03-18T20:21:24.512Z,100477.00
2023-03-18T20:23:53.859Z,100467.00
2023-03-18T20:26:23.239Z,100505.00
2023-03-18T20:28:55.436Z,100489.00
2023-03-18T20:31:23.445Z,100504.00
2023-03-18T20:33:51.321Z,100502.00
2023-03-18T20:36:20.706Z,100509.00
2023-03-18T20:38:51.237Z,100492.00
2023-03-18T20:41:21.527Z,100505.00
2023-03-18T20:43:50.226Z,100507.00
2023-03-18T20:46:19.973Z,100515.00
2023-03-18T20:48:49.368Z,100506.00
2023-03-18T20:51:22.143Z,100519.00
2023-03-18T20:53:50.299Z,100514.00
2023-03-18T20:56:19.442Z,100509.00
2023-03-18T20:58:47.177Z,100524.00
2023-03-18T21:01:15.726Z,100520.00
2023-03-18T21:03:44.720Z,100518.00
2023-03-18T21:06:14.935Z,100516.00
2023-03-18T21:08:44.298Z,100517.00
2023-03-18T21:11:22.864Z,100511.00
2023-03-18T21:13:51.058Z,100495.00
2023-03-18T21:16:19.961Z,100495.00
2023-03-18T21:18:49.534Z,100511.00
2023-03-18T21:21:23.674Z,100510.00
2023-03-18T21:23:54.474Z,100521.00
2023-03-18T21:26:22.859Z,100513.00
2023-03-18T21:28:51.077Z,100502.00
2023-03-18T21:31:25.717Z,100495.00
2023-03-18T21:33:55.334Z,100486.00
2023-03-18T21:36:23.397Z,100484.00
2023-03-18T21:38:52.531Z,100489.00
2023-03-18T21:41:22.333Z,100484.00
2023-03-18T21:43:51.087Z,100491.00
2023-03-18T21:46:21.250Z,100492.00
2023-03-18T21:48:49.518Z,100484.00
2023-03-18T21:51:37.690Z,100483.00
2023-03-18T21:54:17.792Z,100495.00
2023-03-18T21:56:45.603Z,100498.00
2023-03-18T21:59:13.371Z,100486.00
2023-03-18T22:01:41.127Z,100486.00
2023-03-18T22:04:09.031Z,100491.00
2023-03-18T22:06:37.226Z,100474.00
2023-03-18T22:09:05.185Z,100488.00
2023-03-18T22:11:34.342Z,100484.00
2023-03-18T22:14:02.262Z,100497.00
2023-03-18T22:16:30.004Z,100497.00
2023-03-18T22:18:57.838Z,100482.00
2023-03-18T22:21:28.297Z,100506.00
2023-03-18T22:23:58.026Z,100500.00
2023-03-18T22:26:25.766Z,100473.00
2023-03-18T22:28:54.902Z,100498.00
2023-03-18T22:31:25.473Z,100480.00
2023-03-18T22:33:54.205Z,100490.00
2023-03-18T22:36:23.756Z,100500.00
2023-03-18T22:38:51.728Z,100499.00
2023-03-18T22:41:21.974Z,100496.00
2023-03-18T22:43:50.141Z,100494.00
2023-03-18T22:46:19.373Z,100502.00
2023-03-18T22:48:47.088Z,100504.00
2023-03-18T22:51:22.642Z,100502.00
2023-03-18T22:53:52.554Z,100508.00
2023-03-18T22:56:20.921Z,100501.00
2023-03-18T22:58:49.112Z,100487.00
2023-03-18T23:01:18.690Z,100492.00
2023-03-18T23:03:48.975Z,100500.00
2023-03-18T23:06:19.817Z,100500.00
2023-03-18T23:08:48.205Z,100483.00
2023-03-18T23:11:17.072Z,100485.00
2023-03-18T23:13:46.144Z,100483.00
2023-03-18T23:16:16.659Z,100487.00
2023-03-18T23:18:45.014Z,100450.00
2023-03-18T23:21:18.004Z,100472.00
2023-03-18T23:23:46.367Z,100460.00
2023-03-18T23:26:14.236Z,100466.00
2023-03-18T23:28:44.917Z,100479.00
2023-03-18T23:31:13.042Z,100479.00
2023-03-18T23:33:40.950Z,100475.00
2023-03-18T23:36:09.536Z,100472.00
2023-03-18T23:38:38.938Z,100476.00
2023-03-18T23:41:07.331Z,100476.00
2023-03-18T23:43:35.626Z,100475.00
2023-03-18T23:46:03.803Z,100459.00
2023-03-18T23:48:32.549Z,100469.00
2023-03-18T23:51:00.768Z,100470.00
2023-03-18T23:53:28.683Z,100469.00
2023-03-18T23:55:57.956Z,100477.00
2023-03-18T23:58:26.027Z,100478.00
